createdAt,value
2023-02-09T00:01:37.739Z,98603.00
2023-02-09T00:06:38.529Z,98599.00
2023-02-09T00:11:57.467Z,98606.00
2023-02-09T00:17:00.941Z,98599.00
2023-02-09T00:22:02.010Z,98592.00
2023-02-09T00:27:03.422Z,98581.00
2023-02-09T00:32:05.576Z,98584.00
2023-02-09T00:37:06.725Z,98579.00
2023-02-09T00:42:10.379Z,98579.00
2023-02-09T00:47:11.169Z,98580.00
2023-02-09T00:52:11.918Z,98573.00
2023-02-09T00:57:12.804Z,98557.00
2023-02-09T01:02:13.611Z,98560.00
2023-02-09T01:07:14.402Z,98554.00
2023-02-09T01:12:15.204Z,98552.00
2023-02-09T01:17:15.993Z,98540.00
2023-02-09T01:22:16.741Z,98545.00
2023-02-09T01:27:23.305Z,98549.00
2023-02-09T01:32:24.218Z,98542.00
2023-02-09T01:37:27.975Z,98525.00
2023-02-09T01:42:32.256Z,98514.00
2023-02-09T01:47:41.386Z,98515.00
2023-02-09T01:52:43.126Z,98517.00
2023-02-09T01:57:53.411Z,98514.00
2023-02-09T02:03:01.610Z,98517.00
2023-02-09T02:08:13.965Z,98513.00
2023-02-09T02:13:14.763Z,98510.00
2023-02-09T02:18:49.764Z,98512.00
2023-02-09T02:27:05.264Z,98517.00
2023-02-09T02:32:13.637Z,98510.00
2023-02-09T02:37:47.612Z,98494.00
2023-02-09T02:43:06.947Z,98494.00
2023-02-09T02:49:43.708Z,98491.00
2023-02-09T02:54:52.257Z,98490.00
2023-02-09T03:00:00.046Z,98491.00
2023-02-09T03:05:03.048Z,98483.00
2023-02-09T03:10:24.226Z,98488.00
2023-02-09T03:17:40.431Z,98490.00
2023-02-09T03:22:45.444Z,98486.00
2023-02-09T03:28:26.539Z,98489.00
2023-02-09T03:33:31.336Z,98480.00
2023-02-09T03:38:32.147Z,98477.00
2023-02-09T03:43:54.106Z,98476.00
2023-02-09T03:48:56.393Z,98488.00
2023-02-09T03:53:58.061Z,98488.00
2023-02-09T03:58:59.551Z,98481.00
2023-02-09T04:04:04.496Z,98477.00
2023-02-09T04:09:05.998Z,98478.00
2023-02-09T04:14:12.272Z,98476.00
2023-02-09T04:19:13.307Z,98468.00
2023-02-09T04:24:14.046Z,98473.00
2023-02-09T04:29:14.865Z,98473.00
2023-02-09T04:34:15.778Z,98469.00
2023-02-09T04:39:26.390Z,98466.00
2023-02-09T04:44:27.164Z,98469.00
2023-02-09T04:49:28.158Z,98469.00
2023-02-09T04:54:28.902Z,98468.00
2023-02-09T04:59:36.396Z,98478.00
2023-02-09T05:04:37.176Z,98482.00
2023-02-09T05:09:41.028Z,98468.00
2023-02-09T05:14:41.788Z,98477.00
2023-02-09T05:19:45.875Z,98489.00
2023-02-09T05:24:46.603Z,98491.00
2023-02-09T05:29:49.122Z,98487.00
2023-02-09T05:34:49.941Z,98494.00
2023-02-09T05:39:50.787Z,98491.00
2023-02-09T05:44:51.627Z,98491.00
2023-02-09T05:49:52.345Z,98483.00
2023-02-09T05:54:53.172Z,98477.00
2023-02-09T05:59:53.883Z,98473.00
2023-02-09T06:04:57.572Z,98481.00
2023-02-09T06:09:58.391Z,98477.00
2023-02-09T06:15:10.196Z,98487.00
2023-02-09T06:20:14.094Z,98482.00
2023-02-09T06:25:17.816Z,98481.00
2023-02-09T06:30:19.375Z,98491.00
2023-02-09T06:35:20.852Z,98493.00
2023-02-09T06:40:24.858Z,98505.00
2023-02-09T06:45:26.125Z,98515.00
2023-02-09T06:50:27.157Z,98513.00
2023-02-09T06:55:28.586Z,98508.00
2023-02-09T07:00:31.357Z,98524.00
2023-02-09T07:05:32.288Z,98525.00
2023-02-09T07:10:33.232Z,98529.00
2023-02-09T07:15:37.104Z,98529.00
2023-02-09T07:20:41.896Z,98525.00
2023-02-09T07:25:49.952Z,98530.00
2023-02-09T07:30:52.406Z,98522.00
2023-02-09T07:35:53.383Z,98536.00
2023-02-09T07:40:54.744Z,98537.00
2023-02-09T07:46:07.668Z,98535.00
2023-02-09T07:51:26.972Z,98531.00
2023-02-09T07:56:28.470Z,98521.00
2023-02-09T08:01:29.718Z,98524.00
2023-02-09T08:06:43.012Z,98527.00
2023-02-09T08:12:04.290Z,98531.00
2023-02-09T08:17:23.351Z,98540.00
2023-02-09T08:22:29.311Z,98539.00
2023-02-09T08:27:33.583Z,98549.00
2023-02-09T08:32:37.944Z,98555.00
2023-02-09T08:37:39.023Z,98549.00
2023-02-09T08:42:43.868Z,98536.00
2023-02-09T08:47:45.388Z,98550.00
2023-02-09T08:52:52.332Z,98535.00
2023-02-09T08:57:55.994Z,98530.00
2023-02-09T09:02:56.862Z,98536.00
2023-02-09T09:08:03.269Z,98534.00
2023-02-09T09:13:04.341Z,98537.00
2023-02-09T09:18:11.311Z,98552.00
2023-02-09T09:23:15.587Z,98542.00
2023-02-09T09:28:16.688Z,98541.00
2023-02-09T09:33:19.117Z,98538.00
2023-02-09T09:38:22.204Z,98552.00
2023-02-09T09:43:33.847Z,98564.00
2023-02-09T09:48:47.140Z,98567.00
2023-02-09T09:53:50.360Z,98576.00
2023-02-09T09:58:53.943Z,98568.00
2023-02-09T10:04:12.536Z,98570.00
2023-02-09T10:09:32.671Z,98576.00
2023-02-09T10:14:33.617Z,98571.00
2023-02-09T10:19:40.716Z,98563.00
2023-02-09T10:24:41.468Z,98562.00
2023-02-09T10:29:44.934Z,98565.00
2023-02-09T10:34:51.675Z,98571.00
2023-02-09T10:39:59.506Z,98570.00
2023-02-09T10:45:20.577Z,98588.00
2023-02-09T10:50:21.755Z,98585.00
2023-02-09T10:55:27.917Z,98588.00
2023-02-09T11:00:36.331Z,98589.00
2023-02-09T11:05:39.107Z,98580.00
2023-02-09T11:10:46.585Z,98576.00
2023-02-09T11:16:24.812Z,98560.00
2023-02-09T11:21:39.941Z,98564.00
2023-02-09T11:26:57.452Z,98559.00
2023-02-09T11:32:26.204Z,98559.00
2023-02-09T11:38:18.096Z,98550.00
2023-02-09T11:43:40.086Z,98546.00
2023-02-09T11:48:47.981Z,98542.00
2023-02-09T11:54:06.626Z,98547.00
2023-02-09T11:59:32.157Z,98542.00
2023-02-09T12:04:49.305Z,98544.00
2023-02-09T12:10:16.019Z,98532.00
2023-02-09T12:15:20.197Z,98540.00
2023-02-09T12:23:52.707Z,98548.00
2023-02-09T12:29:40.660Z,98543.00
2023-02-09T12:34:49.853Z,98538.00
2023-02-09T12:43:26.647Z,98523.00
2023-02-09T12:48:27.396Z,98547.00
2023-02-09T12:53:40.003Z,98544.00
2023-02-09T12:59:26.524Z,98539.00
2023-02-09T13:04:31.580Z,98527.00
2023-02-09T13:09:37.685Z,98523.00
2023-02-09T13:14:38.583Z,98516.00
2023-02-09T13:21:26.859Z,98514.00
2023-02-09T13:26:31.687Z,98512.00
2023-02-09T13:31:42.013Z,98516.00
2023-02-09T13:37:17.868Z,98519.00
2023-02-09T13:42:22.093Z,98523.00
2023-02-09T13:47:23.730Z,98518.00
2023-02-09T13:52:25.990Z,98522.00
2023-02-09T13:57:37.595Z,98513.00
2023-02-09T14:02:38.884Z,98506.00
2023-02-09T14:07:40.178Z,98519.00
2023-02-09T14:12:58.866Z,98517.00
2023-02-09T14:17:59.602Z,98519.00
2023-02-09T14:23:01.436Z,98515.00
2023-02-09T14:28:02.655Z,98521.00
2023-02-09T14:33:03.615Z,98543.00
2023-02-09T14:38:04.399Z,98535.00
2023-02-09T14:43:38.222Z,98534.00
2023-02-09T14:48:39.433Z,98526.00
2023-02-09T14:53:42.950Z,98516.00
2023-02-09T14:58:43.761Z,98544.00
2023-02-09T15:03:44.558Z,98524.00
2023-02-09T15:08:45.361Z,98525.00
2023-02-09T15:13:46.978Z,98531.00
2023-02-09T15:18:47.694Z,98538.00
2023-02-09T15:23:48.504Z,98533.00
2023-02-09T15:28:49.380Z,98540.00
2023-02-09T15:33:50.150Z,98533.00
2023-02-09T15:38:50.869Z,98546.00
2023-02-09T15:44:10.087Z,98544.00
2023-02-09T15:49:11.033Z,98533.00
2023-02-09T15:54:17.136Z,98541.00
2023-02-09T15:59:20.936Z,98536.00
2023-02-09T16:04:21.697Z,98539.00
2023-02-09T16:09:26.943Z,98538.00
2023-02-09T16:14:27.818Z,98560.00
2023-02-09T16:19:28.860Z,98565.00
2023-02-09T16:24:38.629Z,98563.00
2023-02-09T16:29:39.524Z,98578.00
2023-02-09T16:34:40.319Z,98581.00
2023-02-09T16:39:41.551Z,98585.00
2023-02-09T16:44:42.452Z,98585.00
2023-02-09T16:49:54.213Z,98592.00
2023-02-09T16:55:00.115Z,98593.00
2023-02-09T17:00:01.757Z,98606.00
2023-02-09T17:05:17.852Z,98602.00
2023-02-09T17:10:20.952Z,98596.00
2023-02-09T17:15:30.494Z,98603.00
2023-02-09T17:20:40.225Z,98617.00
2023-02-09T17:25:41.002Z,98635.00
2023-02-09T17:30:42.377Z,98637.00
2023-02-09T17:36:17.603Z,98615.00
2023-02-09T17:41:36.363Z,98633.00
2023-02-09T17:46:37.167Z,98639.00
2023-02-09T17:51:40.654Z,98633.00
2023-02-09T17:56:41.983Z,98637.00
2023-02-09T18:01:45.856Z,98650.00
2023-02-09T18:06:51.112Z,98644.00
2023-02-09T18:12:03.605Z,98645.00
2023-02-09T18:17:04.454Z,98654.00
2023-02-09T18:22:05.966Z,98649.00
2023-02-09T18:27:07.988Z,98658.00
2023-02-09T18:32:12.106Z,98667.00
2023-02-09T18:37:14.540Z,98674.00
2023-02-09T18:42:15.595Z,98675.00
2023-02-09T18:47:16.427Z,98678.00
2023-02-09T18:52:17.955Z,98676.00
2023-02-09T18:57:18.814Z,98690.00
2023-02-09T19:02:20.088Z,98695.00
2023-02-09T19:07:21.612Z,98695.00
2023-02-09T19:12:22.545Z,98691.00
2023-02-09T19:17:23.563Z,98692.00
2023-02-09T19:22:25.144Z,98695.00
2023-02-09T19:27:27.000Z,98693.00
2023-02-09T19:32:28.188Z,98691.00
2023-02-09T19:37:29.131Z,98708.00
2023-02-09T19:42:32.848Z,98716.00
2023-02-09T19:47:33.642Z,98717.00
2023-02-09T19:52:36.527Z,98728.00
2023-02-09T19:57:37.340Z,98726.00
2023-02-09T20:02:39.111Z,98727.00
2023-02-09T20:07:40.120Z,98734.00
2023-02-09T20:12:40.973Z,98738.00
2023-02-09T20:17:43.477Z,98743.00
2023-02-09T20:22:44.258Z,98744.00
2023-02-09T20:27:49.196Z,98743.00
2023-02-09T20:32:50.141Z,98745.00
2023-02-09T20:37:52.249Z,98742.00
2023-02-09T20:43:11.421Z,98749.00
2023-02-09T20:48:13.025Z,98748.00
2023-02-09T20:53:14.038Z,98755.00
2023-02-09T20:58:14.833Z,98759.00
2023-02-09T21:03:15.689Z,98765.00
2023-02-09T21:08:16.444Z,98754.00
2023-02-09T21:13:17.202Z,98763.00
2023-02-09T21:18:18.129Z,98767.00
2023-02-09T21:23:19.642Z,98767.00
2023-02-09T21:28:20.443Z,98775.00
2023-02-09T21:33:21.337Z,98773.00
2023-02-09T21:38:22.098Z,98775.00
2023-02-09T21:43:23.030Z,98768.00
2023-02-09T21:48:23.754Z,98762.00
2023-02-09T21:53:24.590Z,98756.00
2023-02-09T21:58:25.323Z,98761.00
2023-02-09T22:03:26.192Z,98751.00
2023-02-09T22:08:28.196Z,98766.00
2023-02-09T22:13:29.814Z,98770.00
2023-02-09T22:18:30.554Z,98775.00
2023-02-09T22:23:31.327Z,98777.00
2023-02-09T22:28:35.855Z,98782.00
2023-02-09T22:33:37.783Z,98774.00
2023-02-09T22:38:38.780Z,98772.00
2023-02-09T22:43:39.580Z,98782.00
2023-02-09T22:48:40.313Z,98779.00
2023-02-09T22:53:41.145Z,98775.00
2023-02-09T22:58:42.207Z,98775.00
2023-02-09T23:03:43.156Z,98769.00
2023-02-09T23:08:44.831Z,98762.00
2023-02-09T23:13:45.670Z,98778.00
2023-02-09T23:18:51.632Z,98770.00
2023-02-09T23:23:53.132Z,98768.00
2023-02-09T23:28:58.553Z,98769.00
2023-02-09T23:33:59.570Z,98778.00
2023-02-09T23:39:04.462Z,98774.00
2023-02-09T23:44:05.226Z,98778.00
2023-02-09T23:49:06.269Z,98773.00
2023-02-09T23:54:07.413Z,98782.00
2023-02-09T23:59:11.951Z,98799.00
